Welcome to Northern Hawkes Bay. New Zealand.
PWS Header
      nz Flag



Hit Counter


W3C Valid W3C Valid logo


    Wairoa

Select any of the Stations below to visit their websites.










Historic Data from Weather Underground
Select the location of interest below. Wairoa is the default. Please have patience, this Data is slow to load in.
Northern Hawkes Bay Historical Data
Daily Summary for April 30, 2017 Units:  English    Metric   Both
« Previous Day
Next Day »
Daily Weekly Monthly Yearly Custom
  High: Low: Average:
Temperature: 72.3 °F 52.7 °F 61.3 °F
Dew Point: 63.7 °F 52 °F 57.7 °F
Humidity: 99% 70% 89%
Wind Speed: 15.2mph 0mph 2.6mph
Wind Gust: 24.4mph - -
Wind- - SSW
Pressure: 29.6 in 29.3 in -
Precipitation: 0.61 in    
Historical Graphs
 
 
Tabular Data for April 30, 2017
Time Temperature Dew Point Pressure Wind Wind Speed Wind Gust Humidity Rainfall Rate (Hourly) solar
00:02 65.8 °F 58.1 °F 29.6 in NNE 3.1 mph 12.1 mph 76% 0 in 0 W/m2
00:07 65.7 °F 57.9 °F 29.6 in North 3.1 mph 12.1 mph 76% 0 in 0 W/m2
00:12 65.3 °F 57.9 °F 29.6 in NNE 6.9 mph 12.1 mph 77% 0 in 0 W/m2
00:17 65.3 °F 58.3 °F 29.6 in NNE 3.1 mph 12.1 mph 78% 0 in 0 W/m2
00:22 64.6 °F 58.3 °F 29.6 in NNE 3.8 mph 12.1 mph 80% 0.01 in 0 W/m2
00:27 64.2 °F 58.6 °F 29.6 in NNE 1.6 mph 6.9 mph 82% 0.01 in 0 W/m2
00:32 63.9 °F 58.6 °F 29.6 in NE 1.6 mph 6 mph 83% 0.02 in 0 W/m2
00:37 63.5 °F 58.6 °F 29.6 in Calm   10.7 mph 84% 0.02 in 0 W/m2
00:42 63.1 °F 58.6 °F 29.6 in NNE 0.7 mph 10.7 mph 85% 0.02 in 0 W/m2
00:47 63 °F 58.6 °F 29.6 in North 0.7 mph 6 mph 86% 0.02 in 0 W/m2
00:52 63 °F 59 °F 29.6 in Calm   6 mph 87% 0.02 in 0 W/m2
00:57 63 °F 59 °F 29.6 in North 0.7 mph 5.4 mph 87% 0.02 in 0 W/m2
01:02 63 °F 58.6 °F 29.6 in Calm   5.4 mph 86% 0.02 in 0 W/m2
01:07 63.1 °F 58.8 °F 29.6 in North 4.5 mph 6 mph 86% 0.02 in 0 W/m2
01:12 63.5 °F 59.4 °F 29.6 in North 5.4 mph 9.2 mph 86% 0.02 in 0 W/m2
01:17 63.9 °F 59 °F 29.6 in Calm   9.2 mph 84% 0.02 in 0 W/m2
01:22 63.9 °F 59 °F 29.6 in NNE 1.6 mph 8.3 mph 84% 0.01 in 0 W/m2
01:27 63.9 °F 59 °F 29.6 in NNE 0.7 mph 8.3 mph 84% 0.02 in 0 W/m2
01:32 63.9 °F 59 °F 29.6 in NE 3.1 mph 6 mph 84% 0.01 in 0 W/m2
01:37 63.7 °F 58.8 °F 29.6 in ENE 0.7 mph 6 mph 84% 0.01 in 0 W/m2
01:42 63.9 °F 59 °F 29.6 in ENE 2.2 mph 6 mph 84% 0.01 in 0 W/m2
01:47 64 °F 58.8 °F 29.6 in Calm   6.9 mph 83% 0.01 in 0 W/m2
01:52 64 °F 58.5 °F 29.6 in NNE 2.2 mph 6.9 mph 82% 0.01 in 0 W/m2
01:57 64.2 °F 58.3 °F 29.6 in NNE 4.5 mph 7.6 mph 81% 0.01 in 0 W/m2
02:02 64.4 °F 57.7 °F 29.6 in NNE 3.1 mph 8.3 mph 79% 0.01 in 0 W/m2
02:07 64.8 °F 57.7 °F 29.6 in NNE 4.5 mph 9.8 mph 78% 0.01 in 0 W/m2
02:12 64.8 °F 57.7 °F 29.6 in NNE 3.1 mph 9.8 mph 78% 0.01 in 0 W/m2
02:17 64.8 °F 57.7 °F 29.6 in NNE 1.6 mph 6.9 mph 78% 0.01 in 0 W/m2
02:22 64.6 °F 57.6 °F 29.6 in NNE 1.6 mph 6.9 mph 78% 0.01 in 0 W/m2
02:27 64.6 °F 57.6 °F 29.6 in NE 1.6 mph 6 mph 78% 0 in 0 W/m2
02:32 64.4 °F 57.4 °F 29.6 in Calm   6 mph 78% 0 in 0 W/m2
02:37 64.4 °F 57.7 °F 29.6 in NE 0.7 mph 5.4 mph 79% 0 in 0 W/m2
02:42 64.2 °F 57.6 °F 29.6 in NNE 3.1 mph 5.4 mph 79% 0 in 0 W/m2
02:47 64.2 °F 57.6 °F 29.5 in NE 0.7 mph 4.5 mph 79% 0 in 0 W/m2
02:52 64.2 °F 57.9 °F 29.6 in Calm   4.5 mph 80% 0 in 0 W/m2
02:57 64.2 °F 57.9 °F 29.6 in Calm   4.5 mph 80% 0 in 0 W/m2
03:02 64 °F 57.7 °F 29.6 in Calm   1.6 mph 80% 0 in 0 W/m2
03:07 63.9 °F 57.6 °F 29.5 in Calm     80% 0 in 0 W/m2
03:12 63.5 °F 57.6 °F 29.5 in Calm     81% 0 in 0 W/m2
03:17 63.1 °F 57.6 °F 29.5 in Calm     82% 0.01 in 0 W/m2
03:22 62.6 °F 57.4 °F 29.5 in Calm     83% 0.01 in 0 W/m2
03:27 62.2 °F 57.7 °F 29.5 in Calm     85% 0.01 in 0 W/m2
03:32 61.9 °F 57.7 °F 29.5 in Calm   0.7 mph 86% 0.02 in 0 W/m2
03:51 61.2 °F 58.3 °F 29.5 in Calm   2.2 mph 90% 0.02 in 0 W/m2
03:56 61.2 °F 58.8 °F 29.5 in Calm   3.8 mph 92% 0.02 in 0 W/m2
04:01 61.3 °F 59 °F 29.5 in North 1.6 mph 3.8 mph 92% 0.02 in 0 W/m2
04:06 61.5 °F 59.2 °F 29.5 in NNE 3.1 mph 5.4 mph 92% 0.02 in 0 W/m2
04:11 61.9 °F 59.5 °F 29.5 in NNE 3.1 mph 6 mph 92% 0.02 in 0 W/m2
04:16 62.1 °F 59.4 °F 29.5 in NNE 0.7 mph 6.9 mph 91% 0.01 in 0 W/m2
04:21 62.2 °F 59.5 °F 29.5 in NNE 1.6 mph 6.9 mph 91% 0.01 in 0 W/m2
04:26 62.2 °F 59.4 °F 29.5 in NNE 3.8 mph 6 mph 90% 0.01 in 0 W/m2
04:31 62.4 °F 59.5 °F 29.5 in NNE 3.1 mph 6 mph 90% 0 in 0 W/m2
04:36 62.4 °F 59.5 °F 29.5 in North 1.6 mph 6 mph 90% 0 in 0 W/m2
04:41 62.6 °F 59.4 °F 29.5 in Calm   5.4 mph 89% 0 in 0 W/m2
04:47 62.6 °F 59 °F 29.5 in Calm   3.8 mph 88% 0 in 0 W/m2
04:52 62.4 °F 59.2 °F 29.5 in Calm   3.8 mph 89% 0 in 0 W/m2
04:57 62.2 °F 59 °F 29.5 in Calm     89% 0 in 0 W/m2
05:02 62.1 °F 59.2 °F 29.5 in Calm   0.7 mph 90% 0 in 0 W/m2
05:07 61.5 °F 58.8 °F 29.5 in Calm   3.1 mph 91% 0 in 0 W/m2
05:12 61.3 °F 59 °F 29.5 in Calm   3.1 mph 92% 0 in 0 W/m2
05:17 61.2 °F 58.8 °F 29.5 in Calm     92% 0 in 0 W/m2
05:23 61.2 °F 58.8 °F 29.5 in North 0.7 mph 2.2 mph 92% 0 in 0 W/m2
05:28 61.2 °F 58.8 °F 29.5 in NNW 0.7 mph 3.8 mph 92% 0 in 0 W/m2
05:33 61.2 °F 59.2 °F 29.5 in North 0.7 mph 4.5 mph 93% 0 in 0 W/m2
05:38 61.2 °F 59.2 °F 29.5 in Calm   4.5 mph 93% 0 in 0 W/m2
05:43 61.2 °F 59.2 °F 29.5 in North 3.8 mph 6.9 mph 93% 0.01 in 0 W/m2
05:48 61.7 °F 60.1 °F 29.4 in NE 4.5 mph 9.2 mph 94% 0.01 in 0 W/m2
05:53 62.2 °F 60.4 °F 29.4 in ENE 7.6 mph 13 mph 94% 0.02 in 0 W/m2
05:58 62.8 °F 60.4 °F 29.4 in NE 3.8 mph 13 mph 92% 0.02 in 0 W/m2
06:03 63 °F 60.3 °F 29.4 in NE 3.8 mph 10.7 mph 91% 0.02 in 0 W/m2
06:08 63.1 °F 60.4 °F 29.4 in NE 2.2 mph 8.3 mph 91% 0.02 in 0 W/m2
06:13 63.3 °F 60.6 °F 29.4 in North 4.5 mph 7.6 mph 91% 0.02 in 0 W/m2
06:18 63.3 °F 60.4 °F 29.4 in NNW 4.5 mph 7.6 mph 90% 0.02 in 0 W/m2
06:23 62.6 °F 59.4 °F 29.4 in Calm   7.6 mph 89% 0.02 in 0 W/m2
06:28 62.1 °F 59.4 °F 29.4 in Calm   6.9 mph 91% 0.02 in 0 W/m2
06:33 61.7 °F 59.2 °F 29.4 in Calm   2.2 mph 91% 0.02 in 0 W/m2
06:38 61.5 °F 59.2 °F 29.4 in Calm     92% 0.02 in 0 W/m2
06:43 61.2 °F 58.8 °F 29.4 in Calm     92% 0.01 in 0 W/m2
06:48 61 °F 58.6 °F 29.4 in Calm     92% 0.01 in 0 W/m2
06:53 61 °F 58.6 °F 29.4 in Calm     92% 0 in 0 W/m2
06:58 60.6 °F 58.6 °F 29.4 in Calm     93% 0 in 0 W/m2
07:03 60.4 °F 58.5 °F 29.4 in Calm     93% 0 in 0 W/m2
07:08 60.3 °F 58.5 °F 29.4 in Calm     94% 0 in 2 W/m2
07:13 60.3 °F 58.5 °F 29.4 in Calm     94% 0 in 3 W/m2
07:18 60.3 °F 58.5 °F 29.4 in Calm     94% 0 in 4 W/m2
07:23 60.1 °F 58.5 °F 29.4 in Calm     94% 0 in 5 W/m2
07:28 60.1 °F 58.6 °F 29.4 in Calm     95% 0 in 6 W/m2
07:33 60.1 °F 58.6 °F 29.4 in Calm     95% 0 in 8 W/m2
07:38 59.9 °F 58.8 °F 29.4 in Calm     96% 0 in 10 W/m2
07:43 60.1 °F 59 °F 29.4 in Calm     96% 0 in 13 W/m2
07:48 60.1 °F 59 °F 29.4 in Calm     96% 0 in 14 W/m2
08:06 60.1 °F 59 °F 29.4 in Calm     96% 0 in 23 W/m2
08:11 60.3 °F 59.4 °F 29.4 in Calm   1.6 mph 97% 0 in 25 W/m2
08:16 60.3 °F 59.4 °F 29.4 in Calm   3.1 mph 97% 0 in 27 W/m2
08:21 60.3 °F 59.4 °F 29.4 in Calm   3.1 mph 97% 0 in 28 W/m2
08:26 60.4 °F 59.5 °F 29.4 in Calm   1.6 mph 97% 0 in 27 W/m2
08:31 60.4 °F 59.5 °F 29.4 in Calm     97% 0 in 29 W/m2
08:36 60.4 °F 59.5 °F 29.4 in Calm     97% 0 in 28 W/m2
08:41 60.4 °F 59.9 °F 29.4 in Calm     98% 0 in 35 W/m2
08:46 60.6 °F 60.1 °F 29.4 in Calm     98% 0 in 43 W/m2
08:51 60.6 °F 60.1 °F 29.4 in Calm     98% 0 in 49 W/m2
08:56 60.8 °F 60.1 °F 29.4 in Calm     97% 0 in 60 W/m2
09:01 61 °F 60.1 °F 29.4 in NW 1.6 mph 3.1 mph 97% 0 in 68 W/m2
09:06 61.3 °F 60.4 °F 29.4 in North 1.6 mph 3.1 mph 97% 0 in 71 W/m2
09:11 61.5 °F 60.6 °F 29.4 in Calm   3.1 mph 97% 0 in 72 W/m2
09:16 61.9 °F 61 °F 29.4 in Calm   3.1 mph 97% 0 in 88 W/m2
09:21 62.1 °F 61.2 °F 29.4 in Calm   2.2 mph 97% 0 in 95 W/m2
09:26 62.4 °F 61.5 °F 29.4 in North 1.6 mph 2.2 mph 97% 0 in 96 W/m2
09:31 62.6 °F 61.2 °F 29.4 in Calm   2.2 mph 95% 0 in 95 W/m2
09:36 62.8 °F 61.3 °F 29.4 in Calm   2.2 mph 95% 0 in 95 W/m2
09:41 62.8 °F 61 °F 29.4 in NNW 1.6 mph 3.8 mph 94% 0 in 97 W/m2
09:46 63 °F 61.2 °F 29.4 in NNW 2.2 mph 6 mph 94% 0 in 93 W/m2
09:51 63.7 °F 61.5 °F 29.4 in NNW 2.2 mph 8.3 mph 93% 0 in 89 W/m2
09:56 64.2 °F 61.9 °F 29.4 in NNW 2.2 mph 8.3 mph 92% 0 in 96 W/m2
10:01 64.8 °F 62.1 °F 29.4 in North 5.4 mph 9.8 mph 91% 0 in 102 W/m2
10:06 65.3 °F 62.1 °F 29.4 in North 3.8 mph 9.8 mph 89% 0 in 103 W/m2
10:11 65.3 °F 61.7 °F 29.4 in North 5.4 mph 12.1 mph 88% 0 in 119 W/m2
10:16 65.3 °F 61.7 °F 29.4 in North 6.9 mph 12.1 mph 88% 0 in 120 W/m2
10:21 65.7 °F 62.1 °F 29.3 in NNW 3.8 mph 12.1 mph 88% 0 in 119 W/m2
10:26 66 °F 62.1 °F 29.3 in NNW 9.2 mph 12.1 mph 87% 0 in 118 W/m2
10:31 66.4 °F 61.3 °F 29.3 in North 5.4 mph 12.1 mph 84% 0 in 98 W/m2
10:36 66.6 °F 61.5 °F 29.4 in North 6 mph 13 mph 84% 0 in 106 W/m2
10:41 66.6 °F 61.5 °F 29.3 in NNW 6 mph 13 mph 84% 0 in 126 W/m2
10:46 66.7 °F 61.9 °F 29.3 in North 4.5 mph 13 mph 84% 0 in 134 W/m2
10:51 66.7 °F 61.9 °F 29.3 in North 1.6 mph 13 mph 84% 0 in 147 W/m2
10:56 66.9 °F 62.1 °F 29.3 in NNW 5.4 mph 10.7 mph 84% 0 in 162 W/m2
11:01 67.3 °F 62.2 °F 29.3 in North 2.2 mph 10.7 mph 84% 0 in 144 W/m2
11:06 67.5 °F 62.4 °F 29.3 in NNW 3.8 mph 8.3 mph 84% 0 in 149 W/m2
11:11 67.6 °F 62.8 °F 29.3 in NNW 3.1 mph 9.2 mph 84% 0 in 141 W/m2
11:16 67.6 °F 62.8 °F 29.3 in NNW 3.1 mph 9.2 mph 84% 0 in 131 W/m2
11:21 67.6 °F 63 °F 29.4 in Calm   6 mph 85% 0 in 124 W/m2
11:26 67.8 °F 63.1 °F 29.3 in NW 0.7 mph 6 mph 85% 0 in 115 W/m2
11:31 68 °F 63 °F 29.3 in NW 0.7 mph 5.4 mph 84% 0 in 112 W/m2
11:36 68 °F 62.8 °F 29.3 in NNW 2.2 mph 4.5 mph 83% 0 in 112 W/m2
11:41 68.2 °F 62.8 °F 29.3 in NNW 2.2 mph 4.5 mph 83% 0 in 144 W/m2
11:46 68.5 °F 63.1 °F 29.3 in North 0.7 mph 6.9 mph 83% 0 in 185 W/m2
11:51 68.9 °F 63.7 °F 29.3 in North 0.7 mph 6.9 mph 83% 0 in 233 W/m2
11:56 69.4 °F 63.3 °F 29.3 in North 2.2 mph 5.4 mph 81% 0 in 240 W/m2
12:01 69.8 °F 62.8 °F 29.3 in North 3.8 mph 6.9 mph 78% 0 in 235 W/m2
12:06 70.2 °F 62.2 °F 29.3 in North 3.8 mph 7.6 mph 76% 0 in 244 W/m2
12:11 70.3 °F 61.7 °F 29.3 in NNW 3.8 mph 7.6 mph 74% 0 in 202 W/m2
12:16 70.7 °F 62.1 °F 29.3 in NNW 2.2 mph 7.6 mph 74% 0 in 226 W/m2
12:21 71.2 °F 62.2 °F 29.3 in NNW 3.1 mph 6.9 mph 73% 0 in 257 W/m2
12:26 71.8 °F 61.9 °F 29.3 in North 0.7 mph 6 mph 71% 0 in 201 W/m2
12:31 71.6 °F 61.3 °F 29.3 in NNE 3.1 mph 6 mph 70% 0 in 269 W/m2
12:36 71.8 °F 61.5 °F 29.3 in NNE 4.5 mph 6.9 mph 70% 0 in 219 W/m2
12:41 71.4 °F 62.1 °F 29.3 in NNE 2.2 mph 7.6 mph 72% 0 in 199 W/m2
12:46 71.4 °F 61.5 °F 29.3 in NNE 3.1 mph 7.6 mph 71% 0 in 199 W/m2
12:51 71.6 °F 61.7 °F 29.3 in NNE 0.7 mph 6.9 mph 71% 0 in 216 W/m2
13:09 72.3 °F 62.1 °F 29.3 in NNE 1.6 mph 6 mph 70% 0 in 148 W/m2
13:14 72.3 °F 62.1 °F 29.3 in Calm   3.1 mph 70% 0 in 155 W/m2
13:19 72.3 °F 62.4 °F 29.3 in Calm   2.2 mph 71% 0 in 147 W/m2
13:24 71.8 °F 62.2 °F 29.3 in SW 4.5 mph 6 mph 72% 0 in 129 W/m2
13:29 70 °F 61.7 °F 29.3 in WSW 4.5 mph 10.7 mph 75% 0 in 123 W/m2
13:34 68.5 °F 62.2 °F 29.3 in SW 4.5 mph 10.7 mph 80% 0 in 120 W/m2
13:39 68 °F 62.8 °F 29.3 in SW 8.3 mph 10.7 mph 83% 0 in 119 W/m2
13:44 67.5 °F 62.8 °F 29.3 in SW 6 mph 13 mph 85% 0 in 118 W/m2
13:49 66.9 °F 62.2 °F 29.3 in WSW 5.4 mph 13 mph 85% 0 in 102 W/m2
13:54 66.7 °F 62.4 °F 29.3 in WSW 11.4 mph 14.5 mph 86% 0 in 77 W/m2
13:59 66 °F 62.4 °F 29.3 in SW 10.7 mph 15.9 mph 88% 0 in 40 W/m2
14:04 64.4 °F 61.7 °F 29.3 in SW 14.5 mph 19 mph 91% 0.05 in 38 W/m2
14:09 63.1 °F 61.2 °F 29.3 in SW 10.7 mph 20.6 mph 93% 0.06 in 52 W/m2
14:14 63 °F 61.2 °F 29.3 in SW 8.3 mph 20.6 mph 94% 0.06 in 62 W/m2
14:19 62.6 °F 60.6 °F 29.3 in SW 15.2 mph 24.4 mph 93% 0.06 in 108 W/m2
14:24 62.6 °F 60.1 °F 29.3 in SW 8.3 mph 24.4 mph 91% 0.06 in 179 W/m2
14:29 62.2 °F 59.5 °F 29.3 in SW 10.7 mph 21.3 mph 91% 0.06 in 160 W/m2
14:34 62.1 °F 59.2 °F 29.3 in SW 9.8 mph 21.3 mph 90% 0.06 in 140 W/m2
14:39 61.9 °F 58.8 °F 29.3 in SW 6 mph 16.8 mph 90% 0.09 in 110 W/m2
14:44 61.7 °F 59.2 °F 29.3 in WSW 0.7 mph 13.6 mph 91% 0.09 in 104 W/m2
14:49 61.7 °F 59.4 °F 29.3 in Calm   9.8 mph 92% 0.09 in 87 W/m2
14:54 61.9 °F 59.5 °F 29.3 in Calm   3.1 mph 92% 0.09 in 75 W/m2
14:59 62.1 °F 59.4 °F 29.3 in Calm   3.1 mph 91% 0.09 in 95 W/m2
15:04 62.1 °F 58.5 °F 29.3 in Calm   3.8 mph 88% 0.05 in 79 W/m2
15:09 62.2 °F 57.7 °F 29.4 in West 3.1 mph 9.2 mph 85% 0.04 in 79 W/m2
15:14 62.2 °F 56.5 °F 29.4 in West 8.3 mph 13 mph 81% 0.04 in 48 W/m2
15:19 61.3 °F 54.1 °F 29.4 in West 3.1 mph 13 mph 77% 0.05 in 45 W/m2
15:24 60.3 °F 54.3 °F 29.4 in West 2.2 mph 13 mph 81% 0.09 in 48 W/m2
15:29 59.7 °F 54.9 °F 29.3 in Calm   4.5 mph 84% 0.09 in 49 W/m2
15:34 59.7 °F 55.2 °F 29.3 in Calm   1.6 mph 85% 0.09 in 56 W/m2
15:39 59.9 °F 55.8 °F 29.4 in Calm     86% 0.06 in 115 W/m2
15:44 60.1 °F 56.5 °F 29.4 in NNW 2.2 mph 4.5 mph 88% 0.06 in 130 W/m2
15:49 60.4 °F 57.6 °F 29.4 in Calm   5.4 mph 90% 0.06 in 99 W/m2
15:54 61 °F 57.9 °F 29.4 in Calm   5.4 mph 90% 0.06 in 82 W/m2
15:59 61.3 °F 58.1 °F 29.4 in North 5.4 mph 7.6 mph 89% 0.06 in 101 W/m2
16:04 61.7 °F 58.1 °F 29.4 in NNW 2.2 mph 9.8 mph 88% 0.06 in 94 W/m2
16:09 62.8 °F 58.5 °F 29.4 in Calm   9.8 mph 86% 0.06 in 77 W/m2
16:14 61.7 °F 57.2 °F 29.4 in Calm   7.6 mph 85% 0.06 in 55 W/m2
16:19 61 °F 56.5 °F 29.4 in Calm   4.5 mph 85% 0.05 in 39 W/m2
16:24 60.8 °F 56.3 °F 29.4 in Calm   3.8 mph 85% 0 in 40 W/m2
16:29 60.8 °F 55.6 °F 29.4 in SW 5.4 mph 8.3 mph 83% 0 in 38 W/m2
16:34 61.5 °F 53.4 °F 29.4 in SW 7.6 mph 12.1 mph 75% 0 in 38 W/m2
16:39 61.9 °F 53.1 °F 29.4 in WSW 4.5 mph 12.1 mph 73% 0 in 33 W/m2
16:44 62.1 °F 53.2 °F 29.4 in WSW 3.8 mph 10.7 mph 73% 0 in 29 W/m2
16:49 61.9 °F 53.4 °F 29.4 in Calm   7.6 mph 74% 0 in 24 W/m2
16:54 61.3 °F 53.8 °F 29.4 in WNW 1.6 mph 6 mph 76% 0 in 17 W/m2
16:59 61.2 °F 54 °F 29.4 in Calm   4.5 mph 77% 0 in 13 W/m2
17:04 61 °F 54.1 °F 29.4 in NNW 0.7 mph 4.5 mph 78% 0 in 13 W/m2
17:09 60.6 °F 54.9 °F 29.4 in NNW 1.6 mph 3.8 mph 81% 0 in 11 W/m2
17:14 60.3 °F 54.9 °F 29.4 in NNW 1.6 mph 4.5 mph 82% 0 in 7 W/m2
17:19 60.1 °F 54.7 °F 29.4 in Calm   6 mph 82% 0 in 5 W/m2
17:24 59.7 °F 54.1 °F 29.4 in Calm   6 mph 82% 0 in 2 W/m2
17:29 59 °F 54.1 °F 29.4 in Calm     84% 0 in 0 W/m2
17:34 58.6 °F 54.5 °F 29.4 in WNW 0.7 mph 3.1 mph 86% 0 in 0 W/m2
17:39 58.3 °F 54.3 °F 29.4 in Calm   3.1 mph 87% 0 in 0 W/m2
17:44 57.9 °F 54.1 °F 29.4 in Calm   3.1 mph 87% 0 in 0 W/m2
17:49 57.4 °F 54 °F 29.4 in Calm     88% 0 in 0 W/m2
17:54 57.2 °F 54 °F 29.4 in Calm     89% 0 in 0 W/m2
17:59 57 °F 54.1 °F 29.4 in Calm     90% 0 in 0 W/m2
18:04 56.7 °F 54.1 °F 29.4 in Calm     91% 0 in 0 W/m2
18:09 56.5 °F 54.1 °F 29.4 in Calm     92% 0 in 0 W/m2
18:14 56.5 °F 54.9 °F 29.4 in Calm   3.8 mph 94% 0 in 0 W/m2
18:19 56.3 °F 54.7 °F 29.4 in Calm   3.8 mph 94% 0 in 0 W/m2
18:24 56.1 °F 54.7 °F 29.4 in Calm   1.6 mph 95% 0 in 0 W/m2
18:29 55.8 °F 54.3 °F 29.4 in Calm     95% 0 in 0 W/m2
18:34 55.8 °F 54.3 °F 29.4 in WNW 1.6 mph 3.8 mph 95% 0 in 0 W/m2
18:39 55.6 °F 54.1 °F 29.4 in Calm   3.8 mph 95% 0 in 0 W/m2
18:44 55.4 °F 54 °F 29.4 in NW 1.6 mph 4.5 mph 95% 0 in 0 W/m2
18:49 55.4 °F 54.3 °F 29.4 in NW 1.6 mph 4.5 mph 96% 0 in 0 W/m2
18:54 55 °F 54 °F 29.4 in NW 0.7 mph 3.8 mph 96% 0 in 0 W/m2
18:59 54.9 °F 53.8 °F 29.4 in Calm   3.1 mph 96% 0 in 0 W/m2
19:04 54.7 °F 53.6 °F 29.4 in Calm   2.2 mph 96% 0 in 0 W/m2
19:09 54.7 °F 53.6 °F 29.4 in Calm   1.6 mph 96% 0 in 0 W/m2
19:14 54.5 °F 53.4 °F 29.4 in Calm   3.1 mph 96% 0 in 0 W/m2
19:19 54.3 °F 53.2 °F 29.4 in Calm   3.1 mph 96% 0 in 0 W/m2
19:24 54.1 °F 53.1 °F 29.4 in Calm     96% 0 in 0 W/m2
19:29 54.1 °F 53.2 °F 29.4 in Calm     97% 0 in 0 W/m2
19:34 53.8 °F 53.1 °F 29.4 in Calm     97% 0 in 0 W/m2
19:39 53.4 °F 52.9 °F 29.4 in Calm     98% 0 in 0 W/m2
19:44 53.2 °F 52.3 °F 29.4 in Calm     97% 0 in 0 W/m2
19:49 53.4 °F 52.9 °F 29.4 in Calm     98% 0 in 0 W/m2
19:54 53.6 °F 52.9 °F 29.4 in NW 3.1 mph 4.5 mph 97% 0 in 0 W/m2
19:59 54 °F 53.1 °F 29.4 in NW 2.2 mph 4.5 mph 97% 0 in 0 W/m2
20:04 54 °F 53.1 °F 29.4 in Calm   5.4 mph 97% 0 in 0 W/m2
20:09 54 °F 53.1 °F 29.4 in Calm   5.4 mph 97% 0 in 0 W/m2
20:14 54 °F 53.1 °F 29.4 in Calm     97% 0 in 0 W/m2
20:19 54 °F 53.1 °F 29.4 in Calm     97% 0 in 0 W/m2
20:24 54 °F 53.1 °F 29.4 in Calm     97% 0 in 0 W/m2
20:29 54 °F 53.1 °F 29.5 in Calm     97% 0 in 0 W/m2
20:34 54 °F 53.1 °F 29.5 in Calm     97% 0 in 0 W/m2
20:39 54.1 °F 53.2 °F 29.5 in Calm     97% 0 in 0 W/m2
20:44 54.3 °F 53.4 °F 29.5 in Calm     97% 0 in 0 W/m2
20:49 54.5 °F 53.8 °F 29.5 in Calm     97% 0 in 0 W/m2
20:54 54.5 °F 53.8 °F 29.5 in Calm   2.2 mph 97% 0 in 0 W/m2
20:59 55.2 °F 54.3 °F 29.5 in West 4.5 mph 6.9 mph 97% 0 in 0 W/m2
21:04 56.3 °F 55.9 °F 29.5 in WSW 6 mph 13.6 mph 99% 0 in 0 W/m2
21:09 56.8 °F 56.7 °F 29.5 in Calm   15.2 mph 99% 0.08 in 0 W/m2
21:14 56.5 °F 55.9 °F 29.5 in South 2.2 mph 15.2 mph 98% 0.12 in 0 W/m2
21:19 56.7 °F 56.1 °F 29.5 in South 4.5 mph 10.7 mph 98% 0.14 in 0 W/m2
21:24 56.7 °F 56.1 °F 29.5 in South 1.6 mph 12.1 mph 98% 0.14 in 0 W/m2
21:29 57 °F 55.9 °F 29.5 in South 9.2 mph 14.5 mph 96% 0.14 in 0 W/m2
21:34 57.6 °F 55.9 °F 29.5 in South 10.7 mph 15.2 mph 94% 0.14 in 0 W/m2
21:39 57.7 °F 55 °F 29.5 in South 9.2 mph 15.9 mph 91% 0.14 in 0 W/m2
21:44 57.7 °F 54.9 °F 29.5 in SSW 10.7 mph 19 mph 90% 0.14 in 0 W/m2
21:49 57.9 °F 54.7 °F 29.5 in SW 9.2 mph 19 mph 89% 0.15 in 0 W/m2
21:54 57.2 °F 54.3 °F 29.5 in SW 12.1 mph 18.3 mph 90% 0.18 in 0 W/m2
21:59 56.7 °F 54.3 °F 29.5 in SW 9.2 mph 19 mph 92% 0.18 in 0 W/m2
22:04 56.7 °F 54.3 °F 29.5 in SSW 8.3 mph 19 mph 92% 0.18 in 0 W/m2
22:09 56.7 °F 54.3 °F 29.5 in SW 10.7 mph 17.4 mph 92% 0.09 in 0 W/m2
22:14 56.5 °F 54.1 °F 29.5 in SSW 9.8 mph 17.4 mph 92% 0.08 in 0 W/m2
22:19 56.3 °F 54 °F 29.5 in SSW 9.8 mph 17.4 mph 92% 0.07 in 0 W/m2
22:24 56.3 °F 54 °F 29.5 in SW 6.9 mph 17.4 mph 92% 0.07 in 0 W/m2
22:29 56.5 °F 54.1 °F 29.5 in SW 6.9 mph 16.8 mph 92% 0.08 in 0 W/m2
22:34 56.7 °F 54.3 °F 29.5 in SW 12.1 mph 18.3 mph 92% 0.09 in 0 W/m2
22:39 56.5 °F 54.1 °F 29.5 in SW 9.8 mph 18.3 mph 92% 0.09 in 0 W/m2
22:44 56.5 °F 54.1 °F 29.5 in SW 12.1 mph 18.3 mph 92% 0.12 in 0 W/m2
22:49 56.1 °F 54.3 °F 29.5 in WSW 4.5 mph 15.9 mph 94% 0.13 in 0 W/m2
22:54 55.4 °F 54 °F 29.5 in WSW 6 mph 16.8 mph 95% 0.13 in 0 W/m2
22:59 55 °F 54 °F 29.5 in West 13 mph 16.8 mph 96% 0.14 in 0 W/m2
23:04 54.5 °F 53.4 °F 29.5 in WSW 11.4 mph 15.9 mph 96% 0.15 in 0 W/m2
23:09 54.1 °F 53.2 °F 29.5 in WSW 11.4 mph 16.8 mph 97% 0.15 in 0 W/m2
23:14 53.6 °F 52.5 °F 29.5 in WSW 6.9 mph 16.8 mph 96% 0.14 in 0 W/m2
23:19 53.4 °F 52.5 °F 29.5 in WSW 8.3 mph 18.3 mph 97% 0.14 in 0 W/m2
23:24 53.2 °F 52.3 °F 29.5 in WSW 9.8 mph 18.3 mph 97% 0.14 in 0 W/m2
23:29 53.1 °F 52.2 °F 29.5 in West 3.1 mph 14.5 mph 97% 0.13 in 0 W/m2
23:34 52.9 °F 52.2 °F 29.5 in West 3.8 mph 14.5 mph 97% 0.12 in 0 W/m2
23:39 52.9 °F 52.2 °F 29.5 in WSW 6.9 mph 14.5 mph 97% 0.12 in 0 W/m2
23:44 52.9 °F 52.2 °F 29.6 in WSW 3.1 mph 12.1 mph 97% 0.11 in 0 W/m2
23:49 52.7 °F 52 °F 29.6 in West 3.1 mph 12.1 mph 97% 0.08 in 0 W/m2
23:54 52.7 °F 52 °F 29.5 in West 6 mph 9.8 mph 97% 0.07 in 0 W/m2
23:59 52.7 °F 52 °F 29.6 in WNW 6 mph 10.7 mph 97% 0.06 in 0 W/m2
Northern Hawkes Bay. New Zealand Historic Data
Compliments of Weather Underground - 2.25 mb